sensor_id;sensor_type;location;lat;lon;timestamp;P1;durP1;ratioP1;P2;durP2;ratioP2
42614;SDS011;28754;47.700;7.924;2023-09-18T00:00:27;6.03;;;1.70;;
42614;SDS011;28754;47.700;7.924;2023-09-18T00:03:14;3.17;;;1.55;;
42614;SDS011;28754;47.700;7.924;2023-09-18T00:06:03;4.38;;;1.35;;
42614;SDS011;28754;47.700;7.924;2023-09-18T00:08:54;9.00;;;1.98;;
42614;SDS011;28754;47.700;7.924;2023-09-18T00:11:41;9.43;;;2.35;;
42614;SDS011;28754;47.700;7.924;2023-09-18T00:14:28;10.07;;;2.15;;
42614;SDS011;28754;47.700;7.924;2023-09-18T00:17:15;8.20;;;1.92;;
42614;SDS011;28754;47.700;7.924;2023-09-18T00:20:03;11.13;;;2.22;;
42614;SDS011;28754;47.700;7.924;2023-09-18T00:22:53;6.03;;;2.10;;
42614;SDS011;28754;47.700;7.924;2023-09-18T00:25:41;3.05;;;1.23;;
42614;SDS011;28754;47.700;7.924;2023-09-18T00:28:28;7.78;;;1.92;;
42614;SDS011;28754;47.700;7.924;2023-09-18T00:31:15;6.60;;;1.65;;
42614;SDS011;28754;47.700;7.924;2023-09-18T00:34:03;6.75;;;2.20;;
42614;SDS011;28754;47.700;7.924;2023-09-18T00:36:49;10.10;;;1.88;;
42614;SDS011;28754;47.700;7.924;2023-09-18T00:39:36;9.43;;;2.95;;
42614;SDS011;28754;47.700;7.924;2023-09-18T00:42:23;3.95;;;1.70;;
42614;SDS011;28754;47.700;7.924;2023-09-18T00:45:11;5.90;;;1.65;;
42614;SDS011;28754;47.700;7.924;2023-09-18T00:47:57;6.70;;;1.98;;
42614;SDS011;28754;47.700;7.924;2023-09-18T00:50:44;8.40;;;1.80;;
42614;SDS011;28754;47.700;7.924;2023-09-18T00:53:34;6.15;;;1.75;;
42614;SDS011;28754;47.700;7.924;2023-09-18T00:56:21;7.15;;;1.45;;
42614;SDS011;28754;47.700;7.924;2023-09-18T00:59:07;9.90;;;2.03;;
42614;SDS011;28754;47.700;7.924;2023-09-18T01:01:56;4.63;;;1.70;;
42614;SDS011;28754;47.700;7.924;2023-09-18T01:04:43;7.90;;;1.75;;
42614;SDS011;28754;47.700;7.924;2023-09-18T01:07:30;8.55;;;2.20;;
42614;SDS011;28754;47.700;7.924;2023-09-18T01:10:17;18.85;;;2.80;;
42614;SDS011;28754;47.700;7.924;2023-09-18T01:13:10;6.50;;;2.00;;
42614;SDS011;28754;47.700;7.924;2023-09-18T01:16:11;3.88;;;1.75;;
42614;SDS011;28754;47.700;7.924;2023-09-18T01:19:10;7.45;;;1.88;;
42614;SDS011;28754;47.700;7.924;2023-09-18T01:21:57;6.15;;;2.08;;
42614;SDS011;28754;47.700;7.924;2023-09-18T01:24:45;5.40;;;1.52;;
42614;SDS011;28754;47.700;7.924;2023-09-18T01:27:33;11.30;;;1.90;;
42614;SDS011;28754;47.700;7.924;2023-09-18T01:30:20;5.43;;;1.88;;
42614;SDS011;28754;47.700;7.924;2023-09-18T01:33:07;6.13;;;1.92;;
42614;SDS011;28754;47.700;7.924;2023-09-18T01:35:56;9.85;;;2.22;;
42614;SDS011;28754;47.700;7.924;2023-09-18T01:38:45;12.77;;;2.33;;
42614;SDS011;28754;47.700;7.924;2023-09-18T01:41:33;8.63;;;2.58;;
42614;SDS011;28754;47.700;7.924;2023-09-18T01:44:20;11.60;;;4.30;;
42614;SDS011;28754;47.700;7.924;2023-09-18T01:47:12;10.90;;;3.33;;
42614;SDS011;28754;47.700;7.924;2023-09-18T01:50:03;13.23;;;4.00;;
42614;SDS011;28754;47.700;7.924;2023-09-18T01:52:51;19.40;;;4.25;;
42614;SDS011;28754;47.700;7.924;2023-09-18T01:55:38;18.33;;;4.10;;
42614;SDS011;28754;47.700;7.924;2023-09-18T01:58:24;21.70;;;4.07;;
42614;SDS011;28754;47.700;7.924;2023-09-18T02:01:11;15.20;;;4.05;;
42614;SDS011;28754;47.700;7.924;2023-09-18T02:03:57;20.65;;;3.83;;
42614;SDS011;28754;47.700;7.924;2023-09-18T02:06:44;12.98;;;2.60;;
42614;SDS011;28754;47.700;7.924;2023-09-18T02:09:36;19.58;;;4.18;;
42614;SDS011;28754;47.700;7.924;2023-09-18T02:12:22;10.98;;;3.75;;
42614;SDS011;28754;47.700;7.924;2023-09-18T02:15:09;9.15;;;3.58;;
42614;SDS011;28754;47.700;7.924;2023-09-18T02:17:57;14.70;;;4.57;;
42614;SDS011;28754;47.700;7.924;2023-09-18T02:20:43;8.98;;;3.10;;
42614;SDS011;28754;47.700;7.924;2023-09-18T02:23:33;14.07;;;3.53;;
42614;SDS011;28754;47.700;7.924;2023-09-18T02:26:20;20.83;;;3.83;;
42614;SDS011;28754;47.700;7.924;2023-09-18T02:29:09;16.40;;;3.13;;
42614;SDS011;28754;47.700;7.924;2023-09-18T02:32:00;17.02;;;4.47;;
42614;SDS011;28754;47.700;7.924;2023-09-18T02:34:47;19.50;;;2.70;;
42614;SDS011;28754;47.700;7.924;2023-09-18T02:37:34;15.65;;;2.88;;
42614;SDS011;28754;47.700;7.924;2023-09-18T02:40:21;7.20;;;1.67;;
42614;SDS011;28754;47.700;7.924;2023-09-18T02:43:08;10.23;;;2.25;;
42614;SDS011;28754;47.700;7.924;2023-09-18T02:45:55;6.88;;;1.90;;
42614;SDS011;28754;47.700;7.924;2023-09-18T02:48:41;4.65;;;1.92;;
42614;SDS011;28754;47.700;7.924;2023-09-18T02:51:28;9.25;;;1.85;;
42614;SDS011;28754;47.700;7.924;2023-09-18T02:54:18;5.28;;;1.40;;
42614;SDS011;28754;47.700;7.924;2023-09-18T02:57:05;3.38;;;1.35;;
42614;SDS011;28754;47.700;7.924;2023-09-18T02:59:51;3.78;;;1.27;;
42614;SDS011;28754;47.700;7.924;2023-09-18T03:02:38;3.75;;;1.00;;
42614;SDS011;28754;47.700;7.924;2023-09-18T03:05:26;4.82;;;1.20;;
42614;SDS011;28754;47.700;7.924;2023-09-18T03:08:13;9.05;;;1.67;;
42614;SDS011;28754;47.700;7.924;2023-09-18T03:11:02;4.97;;;1.27;;
42614;SDS011;28754;47.700;7.924;2023-09-18T03:13:49;2.70;;;1.20;;
42614;SDS011;28754;47.700;7.924;2023-09-18T03:16:38;2.75;;;1.02;;
42614;SDS011;28754;47.700;7.924;2023-09-18T03:19:25;6.60;;;1.58;;
42614;SDS011;28754;47.700;7.924;2023-09-18T03:22:13;3.22;;;1.15;;
42614;SDS011;28754;47.700;7.924;2023-09-18T03:25:00;1.73;;;0.80;;
42614;SDS011;28754;47.700;7.924;2023-09-18T03:27:47;2.65;;;0.75;;
42614;SDS011;28754;47.700;7.924;2023-09-18T03:30:34;1.20;;;0.60;;
42614;SDS011;28754;47.700;7.924;2023-09-18T03:33:22;2.38;;;0.77;;
42614;SDS011;28754;47.700;7.924;2023-09-18T03:36:12;3.70;;;0.70;;
42614;SDS011;28754;47.700;7.924;2023-09-18T03:38:59;5.25;;;0.93;;
42614;SDS011;28754;47.700;7.924;2023-09-18T03:41:46;2.50;;;0.68;;
42614;SDS011;28754;47.700;7.924;2023-09-18T03:44:33;1.92;;;0.43;;
42614;SDS011;28754;47.700;7.924;2023-09-18T03:47:20;3.13;;;0.65;;
42614;SDS011;28754;47.700;7.924;2023-09-18T03:50:07;4.35;;;0.73;;
42614;SDS011;28754;47.700;7.924;2023-09-18T03:52:58;4.53;;;0.80;;
42614;SDS011;28754;47.700;7.924;2023-09-18T03:55:45;1.00;;;0.63;;
42614;SDS011;28754;47.700;7.924;2023-09-18T03:58:31;2.60;;;1.08;;
42614;SDS011;28754;47.700;7.924;2023-09-18T04:01:18;3.50;;;0.70;;
42614;SDS011;28754;47.700;7.924;2023-09-18T04:04:05;1.17;;;0.40;;
42614;SDS011;28754;47.700;7.924;2023-09-18T04:06:53;4.22;;;0.90;;
42614;SDS011;28754;47.700;7.924;2023-09-18T04:09:40;3.95;;;0.88;;
42614;SDS011;28754;47.700;7.924;2023-09-18T04:12:26;2.38;;;0.47;;
42614;SDS011;28754;47.700;7.924;2023-09-18T04:15:14;3.08;;;0.68;;
42614;SDS011;28754;47.700;7.924;2023-09-18T04:18:01;1.73;;;0.50;;
42614;SDS011;28754;47.700;7.924;2023-09-18T04:20:48;1.52;;;0.47;;
42614;SDS011;28754;47.700;7.924;2023-09-18T04:23:37;1.27;;;0.40;;
42614;SDS011;28754;47.700;7.924;2023-09-18T04:26:25;0.85;;;0.30;;
42614;SDS011;28754;47.700;7.924;2023-09-18T04:29:17;2.00;;;0.60;;
42614;SDS011;28754;47.700;7.924;2023-09-18T04:32:06;6.43;;;0.65;;
42614;SDS011;28754;47.700;7.924;2023-09-18T04:34:53;3.63;;;1.42;;
42614;SDS011;28754;47.700;7.924;2023-09-18T04:37:39;5.78;;;1.10;;
42614;SDS011;28754;47.700;7.924;2023-09-18T04:40:28;5.22;;;0.90;;
42614;SDS011;28754;47.700;7.924;2023-09-18T04:43:18;7.57;;;1.60;;
42614;SDS011;28754;47.700;7.924;2023-09-18T04:46:05;4.53;;;1.40;;
42614;SDS011;28754;47.700;7.924;2023-09-18T04:48:52;9.30;;;1.95;;
42614;SDS011;28754;47.700;7.924;2023-09-18T04:51:38;4.07;;;1.15;;
42614;SDS011;28754;47.700;7.924;2023-09-18T04:54:25;9.25;;;1.90;;
42614;SDS011;28754;47.700;7.924;2023-09-18T04:57:12;9.10;;;2.25;;
42614;SDS011;28754;47.700;7.924;2023-09-18T04:59:59;7.28;;;1.63;;
42614;SDS011;28754;47.700;7.924;2023-09-18T05:02:46;12.43;;;4.68;;
42614;SDS011;28754;47.700;7.924;2023-09-18T05:05:32;9.65;;;1.88;;
42614;SDS011;28754;47.700;7.924;2023-09-18T05:08:23;4.30;;;1.23;;
42614;SDS011;28754;47.700;7.924;2023-09-18T05:11:09;6.25;;;1.92;;
42614;SDS011;28754;47.700;7.924;2023-09-18T05:13:56;4.80;;;1.48;;
42614;SDS011;28754;47.700;7.924;2023-09-18T05:16:43;6.57;;;1.85;;
42614;SDS011;28754;47.700;7.924;2023-09-18T05:19:29;6.30;;;1.67;;
42614;SDS011;28754;47.700;7.924;2023-09-18T05:22:16;7.70;;;1.45;;
42614;SDS011;28754;47.700;7.924;2023-09-18T05:25:03;13.00;;;2.45;;
42614;SDS011;28754;47.700;7.924;2023-09-18T05:27:52;5.57;;;1.75;;
42614;SDS011;28754;47.700;7.924;2023-09-18T05:30:43;8.95;;;1.30;;
42614;SDS011;28754;47.700;7.924;2023-09-18T05:33:29;3.80;;;1.33;;
42614;SDS011;28754;47.700;7.924;2023-09-18T05:36:16;3.33;;;0.90;;
42614;SDS011;28754;47.700;7.924;2023-09-18T05:39:03;2.22;;;1.00;;
42614;SDS011;28754;47.700;7.924;2023-09-18T05:41:50;5.53;;;1.60;;
42614;SDS011;28754;47.700;7.924;2023-09-18T05:44:37;3.30;;;1.52;;
42614;SDS011;28754;47.700;7.924;2023-09-18T05:47:25;8.35;;;1.50;;
42614;SDS011;28754;47.700;7.924;2023-09-18T05:50:12;2.33;;;1.00;;
42614;SDS011;28754;47.700;7.924;2023-09-18T05:53:02;7.43;;;1.67;;
42614;SDS011;28754;47.700;7.924;2023-09-18T05:55:49;6.25;;;1.25;;
42614;SDS011;28754;47.700;7.924;2023-09-18T05:58:36;17.42;;;1.20;;
42614;SDS011;28754;47.700;7.924;2023-09-18T06:01:25;8.00;;;1.20;;
42614;SDS011;28754;47.700;7.924;2023-09-18T06:04:11;2.53;;;1.05;;
42614;SDS011;28754;47.700;7.924;2023-09-18T06:06:58;1.90;;;1.08;;
42614;SDS011;28754;47.700;7.924;2023-09-18T06:09:45;3.72;;;0.90;;
42614;SDS011;28754;47.700;7.924;2023-09-18T06:12:32;2.47;;;1.00;;
42614;SDS011;28754;47.700;7.924;2023-09-18T06:15:19;5.65;;;1.38;;
42614;SDS011;28754;47.700;7.924;2023-09-18T06:18:07;6.68;;;1.40;;
42614;SDS011;28754;47.700;7.924;2023-09-18T06:20:53;6.43;;;1.45;;
42614;SDS011;28754;47.700;7.924;2023-09-18T06:23:40;4.78;;;1.05;;
42614;SDS011;28754;47.700;7.924;2023-09-18T06:26:27;4.10;;;1.25;;
42614;SDS011;28754;47.700;7.924;2023-09-18T06:29:13;8.63;;;1.70;;
42614;SDS011;28754;47.700;7.924;2023-09-18T06:32:00;5.53;;;1.23;;
42614;SDS011;28754;47.700;7.924;2023-09-18T06:34:47;8.10;;;1.25;;
42614;SDS011;28754;47.700;7.924;2023-09-18T06:37:34;4.05;;;0.88;;
42614;SDS011;28754;47.700;7.924;2023-09-18T06:40:20;5.28;;;1.63;;
42614;SDS011;28754;47.700;7.924;2023-09-18T06:43:07;2.67;;;0.95;;
42614;SDS011;28754;47.700;7.924;2023-09-18T06:45:54;3.67;;;0.70;;
42614;SDS011;28754;47.700;7.924;2023-09-18T06:48:42;2.63;;;0.80;;
42614;SDS011;28754;47.700;7.924;2023-09-18T06:51:31;4.47;;;1.10;;
42614;SDS011;28754;47.700;7.924;2023-09-18T06:54:18;4.43;;;1.55;;
42614;SDS011;28754;47.700;7.924;2023-09-18T06:57:04;4.53;;;0.80;;
42614;SDS011;28754;47.700;7.924;2023-09-18T06:59:51;3.15;;;1.08;;
42614;SDS011;28754;47.700;7.924;2023-09-18T07:02:38;2.25;;;0.70;;
42614;SDS011;28754;47.700;7.924;2023-09-18T07:05:24;1.63;;;0.88;;
42614;SDS011;28754;47.700;7.924;2023-09-18T07:08:11;4.57;;;0.98;;
42614;SDS011;28754;47.700;7.924;2023-09-18T07:10:59;6.32;;;1.90;;
42614;SDS011;28754;47.700;7.924;2023-09-18T07:13:45;6.25;;;1.08;;
42614;SDS011;28754;47.700;7.924;2023-09-18T07:16:32;10.85;;;1.35;;
42614;SDS011;28754;47.700;7.924;2023-09-18T07:19:20;4.38;;;1.23;;
42614;SDS011;28754;47.700;7.924;2023-09-18T07:22:06;2.08;;;0.80;;
42614;SDS011;28754;47.700;7.924;2023-09-18T07:24:53;3.00;;;1.08;;
42614;SDS011;28754;47.700;7.924;2023-09-18T07:27:39;3.05;;;1.05;;
42614;SDS011;28754;47.700;7.924;2023-09-18T07:30:30;2.53;;;0.80;;
42614;SDS011;28754;47.700;7.924;2023-09-18T07:33:16;2.83;;;1.08;;
42614;SDS011;28754;47.700;7.924;2023-09-18T07:36:06;2.47;;;0.73;;
42614;SDS011;28754;47.700;7.924;2023-09-18T07:38:52;3.10;;;0.90;;
42614;SDS011;28754;47.700;7.924;2023-09-18T07:41:40;2.13;;;0.70;;
42614;SDS011;28754;47.700;7.924;2023-09-18T07:44:26;1.75;;;0.68;;
42614;SDS011;28754;47.700;7.924;2023-09-18T07:47:13;1.58;;;0.68;;
42614;SDS011;28754;47.700;7.924;2023-09-18T07:50:00;4.45;;;0.52;;
42614;SDS011;28754;47.700;7.924;2023-09-18T07:52:47;1.10;;;0.50;;
42614;SDS011;28754;47.700;7.924;2023-09-18T07:55:33;2.38;;;0.80;;
42614;SDS011;28754;47.700;7.924;2023-09-18T07:58:20;3.72;;;1.70;;
42614;SDS011;28754;47.700;7.924;2023-09-18T08:01:07;4.10;;;0.75;;
42614;SDS011;28754;47.700;7.924;2023-09-18T08:03:56;0.98;;;0.63;;
42614;SDS011;28754;47.700;7.924;2023-09-18T08:06:45;3.80;;;1.17;;
42614;SDS011;28754;47.700;7.924;2023-09-18T08:09:33;6.30;;;1.08;;
42614;SDS011;28754;47.700;7.924;2023-09-18T08:12:23;1.98;;;0.90;;
42614;SDS011;28754;47.700;7.924;2023-09-18T08:15:10;7.32;;;0.90;;
42614;SDS011;28754;47.700;7.924;2023-09-18T08:17:57;1.30;;;0.70;;
42614;SDS011;28754;47.700;7.924;2023-09-18T08:20:44;4.60;;;0.90;;
42614;SDS011;28754;47.700;7.924;2023-09-18T08:23:31;3.53;;;1.77;;
42614;SDS011;28754;47.700;7.924;2023-09-18T08:26:18;4.88;;;1.95;;
42614;SDS011;28754;47.700;7.924;2023-09-18T08:29:05;4.07;;;1.55;;
42614;SDS011;28754;47.700;7.924;2023-09-18T08:31:51;2.08;;;1.52;;
42614;SDS011;28754;47.700;7.924;2023-09-18T08:34:38;1.73;;;0.93;;
42614;SDS011;28754;47.700;7.924;2023-09-18T08:37:25;2.05;;;0.65;;
42614;SDS011;28754;47.700;7.924;2023-09-18T08:40:12;3.28;;;0.57;;
42614;SDS011;28754;47.700;7.924;2023-09-18T08:42:59;1.65;;;0.47;;
42614;SDS011;28754;47.700;7.924;2023-09-18T08:45:52;1.23;;;0.43;;
42614;SDS011;28754;47.700;7.924;2023-09-18T08:48:41;1.88;;;0.82;;
42614;SDS011;28754;47.700;7.924;2023-09-18T08:51:28;2.10;;;0.70;;
42614;SDS011;28754;47.700;7.924;2023-09-18T08:54:16;1.63;;;0.55;;
42614;SDS011;28754;47.700;7.924;2023-09-18T08:57:03;2.67;;;0.98;;
42614;SDS011;28754;47.700;7.924;2023-09-18T08:59:53;2.08;;;0.70;;
42614;SDS011;28754;47.700;7.924;2023-09-18T09:02:41;2.30;;;0.90;;
42614;SDS011;28754;47.700;7.924;2023-09-18T09:05:34;2.95;;;0.63;;
42614;SDS011;28754;47.700;7.924;2023-09-18T09:08:21;1.13;;;0.68;;
42614;SDS011;28754;47.700;7.924;2023-09-18T09:11:08;3.45;;;1.20;;
42614;SDS011;28754;47.700;7.924;2023-09-18T09:14:10;9.13;;;3.70;;
42614;SDS011;28754;47.700;7.924;2023-09-18T09:17:17;2.88;;;1.00;;
42614;SDS011;28754;47.700;7.924;2023-09-18T09:20:11;4.40;;;1.20;;
42614;SDS011;28754;47.700;7.924;2023-09-18T09:23:01;2.80;;;1.08;;
42614;SDS011;28754;47.700;7.924;2023-09-18T09:25:53;3.22;;;1.52;;
42614;SDS011;28754;47.700;7.924;2023-09-18T09:28:42;1.85;;;1.25;;
42614;SDS011;28754;47.700;7.924;2023-09-18T09:31:30;3.72;;;0.80;;
42614;SDS011;28754;47.700;7.924;2023-09-18T09:34:26;2.22;;;0.93;;
42614;SDS011;28754;47.700;7.924;2023-09-18T09:37:15;4.15;;;0.82;;
42614;SDS011;28754;47.700;7.924;2023-09-18T09:40:03;1.77;;;0.80;;
42614;SDS011;28754;47.700;7.924;2023-09-18T09:42:56;1.33;;;0.85;;
42614;SDS011;28754;47.700;7.924;2023-09-18T09:45:47;4.38;;;0.82;;
42614;SDS011;28754;47.700;7.924;2023-09-18T09:48:33;6.20;;;1.42;;
42614;SDS011;28754;47.700;7.924;2023-09-18T09:51:23;3.38;;;0.73;;
42614;SDS011;28754;47.700;7.924;2023-09-18T09:54:10;1.13;;;0.50;;
42614;SDS011;28754;47.700;7.924;2023-09-18T09:56:58;0.82;;;0.60;;
42614;SDS011;28754;47.700;7.924;2023-09-18T09:59:49;1.88;;;0.60;;
42614;SDS011;28754;47.700;7.924;2023-09-18T10:02:35;1.58;;;0.55;;
42614;SDS011;28754;47.700;7.924;2023-09-18T10:05:24;0.98;;;0.70;;
42614;SDS011;28754;47.700;7.924;2023-09-18T10:08:15;1.30;;;0.50;;
42614;SDS011;28754;47.700;7.924;2023-09-18T10:11:06;3.08;;;0.50;;
42614;SDS011;28754;47.700;7.924;2023-09-18T10:13:59;1.70;;;0.50;;
42614;SDS011;28754;47.700;7.924;2023-09-18T10:16:53;1.85;;;0.70;;
42614;SDS011;28754;47.700;7.924;2023-09-18T10:19:49;1.08;;;0.63;;
42614;SDS011;28754;47.700;7.924;2023-09-18T10:23:02;2.60;;;1.27;;
42614;SDS011;28754;47.700;7.924;2023-09-18T10:25:53;2.78;;;0.70;;
42614;SDS011;28754;47.700;7.924;2023-09-18T10:28:46;1.75;;;0.60;;
42614;SDS011;28754;47.700;7.924;2023-09-18T10:31:34;3.03;;;0.88;;
42614;SDS011;28754;47.700;7.924;2023-09-18T10:34:26;1.30;;;0.60;;
42614;SDS011;28754;47.700;7.924;2023-09-18T10:37:16;5.82;;;1.02;;
42614;SDS011;28754;47.700;7.924;2023-09-18T10:40:08;1.08;;;0.47;;
42614;SDS011;28754;47.700;7.924;2023-09-18T10:42:55;1.80;;;0.80;;
42614;SDS011;28754;47.700;7.924;2023-09-18T10:45:44;7.07;;;1.05;;
42614;SDS011;28754;47.700;7.924;2023-09-18T10:48:31;1.75;;;0.57;;
42614;SDS011;28754;47.700;7.924;2023-09-18T10:51:19;1.98;;;0.45;;
42614;SDS011;28754;47.700;7.924;2023-09-18T10:54:09;0.90;;;0.50;;
42614;SDS011;28754;47.700;7.924;2023-09-18T10:56:57;2.17;;;0.60;;
42614;SDS011;28754;47.700;7.924;2023-09-18T10:59:44;1.27;;;0.63;;
42614;SDS011;28754;47.700;7.924;2023-09-18T11:02:32;2.00;;;0.77;;
42614;SDS011;28754;47.700;7.924;2023-09-18T11:05:29;0.55;;;0.50;;
42614;SDS011;28754;47.700;7.924;2023-09-18T11:11:32;1.17;;;0.63;;
42614;SDS011;28754;47.700;7.924;2023-09-18T11:14:18;0.77;;;0.20;;
42614;SDS011;28754;47.700;7.924;2023-09-18T11:17:05;2.15;;;0.65;;
42614;SDS011;28754;47.700;7.924;2023-09-18T11:20:01;3.58;;;0.50;;
42614;SDS011;28754;47.700;7.924;2023-09-18T11:23:10;2.08;;;1.13;;
42614;SDS011;28754;47.700;7.924;2023-09-18T11:26:05;1.10;;;0.60;;
42614;SDS011;28754;47.700;7.924;2023-09-18T11:28:54;1.05;;;0.60;;
42614;SDS011;28754;47.700;7.924;2023-09-18T11:34:36;1.25;;;0.50;;
42614;SDS011;28754;47.700;7.924;2023-09-18T11:37:27;0.95;;;0.45;;
42614;SDS011;28754;47.700;7.924;2023-09-18T11:40:27;1.60;;;0.55;;
42614;SDS011;28754;47.700;7.924;2023-09-18T11:43:20;1.10;;;0.73;;
42614;SDS011;28754;47.700;7.924;2023-09-18T11:46:17;1.92;;;0.70;;
42614;SDS011;28754;47.700;7.924;2023-09-18T11:49:12;3.50;;;0.75;;
42614;SDS011;28754;47.700;7.924;2023-09-18T11:52:00;1.00;;;0.60;;
42614;SDS011;28754;47.700;7.924;2023-09-18T11:54:47;0.80;;;0.43;;
42614;SDS011;28754;47.700;7.924;2023-09-18T11:57:35;4.95;;;0.57;;
42614;SDS011;28754;47.700;7.924;2023-09-18T12:00:23;4.63;;;0.75;;
42614;SDS011;28754;47.700;7.924;2023-09-18T12:03:15;1.65;;;0.47;;
42614;SDS011;28754;47.700;7.924;2023-09-18T12:06:12;1.23;;;0.75;;
42614;SDS011;28754;47.700;7.924;2023-09-18T12:08:59;2.45;;;0.70;;
42614;SDS011;28754;47.700;7.924;2023-09-18T12:11:46;1.35;;;0.47;;
42614;SDS011;28754;47.700;7.924;2023-09-18T12:14:35;1.42;;;0.68;;
42614;SDS011;28754;47.700;7.924;2023-09-18T12:17:21;2.22;;;0.90;;
42614;SDS011;28754;47.700;7.924;2023-09-18T12:20:14;2.40;;;1.10;;
42614;SDS011;28754;47.700;7.924;2023-09-18T12:23:04;2.92;;;1.13;;
42614;SDS011;28754;47.700;7.924;2023-09-18T12:25:57;2.80;;;0.77;;
42614;SDS011;28754;47.700;7.924;2023-09-18T12:28:46;3.53;;;0.63;;
42614;SDS011;28754;47.700;7.924;2023-09-18T12:31:35;3.75;;;1.05;;
42614;SDS011;28754;47.700;7.924;2023-09-18T12:34:21;4.15;;;1.20;;
42614;SDS011;28754;47.700;7.924;2023-09-18T12:37:09;1.88;;;0.77;;
42614;SDS011;28754;47.700;7.924;2023-09-18T12:39:58;2.42;;;1.15;;
42614;SDS011;28754;47.700;7.924;2023-09-18T12:42:45;1.30;;;0.80;;
42614;SDS011;28754;47.700;7.924;2023-09-18T12:45:33;1.58;;;0.75;;
42614;SDS011;28754;47.700;7.924;2023-09-18T12:48:21;0.98;;;0.60;;
42614;SDS011;28754;47.700;7.924;2023-09-18T12:51:08;0.80;;;0.35;;
42614;SDS011;28754;47.700;7.924;2023-09-18T12:54:01;2.65;;;0.68;;
42614;SDS011;28754;47.700;7.924;2023-09-18T12:56:52;3.22;;;0.90;;
42614;SDS011;28754;47.700;7.924;2023-09-18T12:59:39;1.05;;;0.50;;
42614;SDS011;28754;47.700;7.924;2023-09-18T13:02:25;2.00;;;1.02;;
42614;SDS011;28754;47.700;7.924;2023-09-18T13:05:12;1.42;;;0.90;;
42614;SDS011;28754;47.700;7.924;2023-09-18T13:08:05;3.67;;;0.98;;
42614;SDS011;28754;47.700;7.924;2023-09-18T13:10:52;4.07;;;0.82;;
42614;SDS011;28754;47.700;7.924;2023-09-18T13:13:39;3.22;;;0.73;;
42614;SDS011;28754;47.700;7.924;2023-09-18T13:16:26;0.57;;;0.40;;
42614;SDS011;28754;47.700;7.924;2023-09-18T13:19:14;3.00;;;0.80;;
42614;SDS011;28754;47.700;7.924;2023-09-18T13:22:01;1.65;;;0.60;;
42614;SDS011;28754;47.700;7.924;2023-09-18T13:24:57;2.70;;;0.77;;
42614;SDS011;28754;47.700;7.924;2023-09-18T13:27:43;1.75;;;1.17;;
42614;SDS011;28754;47.700;7.924;2023-09-18T13:30:30;1.33;;;0.50;;
42614;SDS011;28754;47.700;7.924;2023-09-18T13:36:11;0.95;;;0.57;;
42614;SDS011;28754;47.700;7.924;2023-09-18T13:38:58;2.25;;;0.77;;
42614;SDS011;28754;47.700;7.924;2023-09-18T13:41:45;1.67;;;1.02;;
42614;SDS011;28754;47.700;7.924;2023-09-18T13:44:32;2.45;;;0.80;;
42614;SDS011;28754;47.700;7.924;2023-09-18T13:47:18;2.38;;;0.90;;
42614;SDS011;28754;47.700;7.924;2023-09-18T13:50:05;4.55;;;1.13;;
42614;SDS011;28754;47.700;7.924;2023-09-18T13:52:52;1.58;;;1.20;;
42614;SDS011;28754;47.700;7.924;2023-09-18T13:55:39;3.35;;;0.93;;
42614;SDS011;28754;47.700;7.924;2023-09-18T13:58:27;1.60;;;0.60;;
42614;SDS011;28754;47.700;7.924;2023-09-18T14:01:13;2.53;;;1.70;;
42614;SDS011;28754;47.700;7.924;2023-09-18T14:04:01;3.95;;;1.30;;
42614;SDS011;28754;47.700;7.924;2023-09-18T14:06:50;2.45;;;0.65;;
42614;SDS011;28754;47.700;7.924;2023-09-18T14:09:37;3.28;;;1.02;;
42614;SDS011;28754;47.700;7.924;2023-09-18T14:12:24;3.20;;;0.80;;
42614;SDS011;28754;47.700;7.924;2023-09-18T14:15:11;1.80;;;1.02;;
42614;SDS011;28754;47.700;7.924;2023-09-18T14:17:59;2.53;;;0.73;;
42614;SDS011;28754;47.700;7.924;2023-09-18T14:20:45;1.42;;;0.63;;
42614;SDS011;28754;47.700;7.924;2023-09-18T14:23:32;1.65;;;0.90;;
42614;SDS011;28754;47.700;7.924;2023-09-18T14:26:23;1.13;;;0.65;;
42614;SDS011;28754;47.700;7.924;2023-09-18T14:29:10;2.03;;;0.95;;
42614;SDS011;28754;47.700;7.924;2023-09-18T14:31:57;1.45;;;0.60;;
42614;SDS011;28754;47.700;7.924;2023-09-18T14:34:44;3.15;;;0.90;;
42614;SDS011;28754;47.700;7.924;2023-09-18T14:37:34;0.80;;;0.50;;
42614;SDS011;28754;47.700;7.924;2023-09-18T14:40:22;2.95;;;0.82;;
42614;SDS011;28754;47.700;7.924;2023-09-18T14:43:09;6.25;;;1.42;;
42614;SDS011;28754;47.700;7.924;2023-09-18T14:45:55;2.25;;;1.15;;
42614;SDS011;28754;47.700;7.924;2023-09-18T14:48:43;1.60;;;0.82;;
42614;SDS011;28754;47.700;7.924;2023-09-18T14:51:29;1.92;;;0.90;;
42614;SDS011;28754;47.700;7.924;2023-09-18T14:54:18;1.77;;;0.95;;
42614;SDS011;28754;47.700;7.924;2023-09-18T14:57:04;2.97;;;0.82;;
42614;SDS011;28754;47.700;7.924;2023-09-18T14:59:51;5.03;;;1.10;;
42614;SDS011;28754;47.700;7.924;2023-09-18T15:02:38;4.57;;;1.23;;
42614;SDS011;28754;47.700;7.924;2023-09-18T15:05:25;4.45;;;1.13;;
42614;SDS011;28754;47.700;7.924;2023-09-18T15:08:11;2.20;;;1.42;;
42614;SDS011;28754;47.700;7.924;2023-09-18T15:10:58;2.72;;;1.38;;
42614;SDS011;28754;47.700;7.924;2023-09-18T15:13:45;1.85;;;0.80;;
42614;SDS011;28754;47.700;7.924;2023-09-18T15:16:34;3.08;;;1.20;;
42614;SDS011;28754;47.700;7.924;2023-09-18T15:19:21;2.60;;;0.70;;
42614;SDS011;28754;47.700;7.924;2023-09-18T15:22:08;2.40;;;0.73;;
42614;SDS011;28754;47.700;7.924;2023-09-18T15:24:56;2.58;;;1.10;;
42614;SDS011;28754;47.700;7.924;2023-09-18T15:27:43;2.55;;;1.10;;
42614;SDS011;28754;47.700;7.924;2023-09-18T15:30:30;2.22;;;0.90;;
42614;SDS011;28754;47.700;7.924;2023-09-18T15:33:16;1.55;;;0.75;;
42614;SDS011;28754;47.700;7.924;2023-09-18T15:36:03;1.33;;;0.73;;
42614;SDS011;28754;47.700;7.924;2023-09-18T15:38:51;2.58;;;0.85;;
42614;SDS011;28754;47.700;7.924;2023-09-18T15:41:37;4.00;;;1.75;;
42614;SDS011;28754;47.700;7.924;2023-09-18T15:44:24;1.88;;;0.80;;
42614;SDS011;28754;47.700;7.924;2023-09-18T15:47:11;1.75;;;0.77;;
42614;SDS011;28754;47.700;7.924;2023-09-18T15:50:01;1.65;;;0.63;;
42614;SDS011;28754;47.700;7.924;2023-09-18T15:52:49;2.80;;;0.55;;
42614;SDS011;28754;47.700;7.924;2023-09-18T15:55:36;1.85;;;0.75;;
42614;SDS011;28754;47.700;7.924;2023-09-18T15:58:22;2.03;;;0.90;;
42614;SDS011;28754;47.700;7.924;2023-09-18T16:01:10;2.47;;;1.48;;
42614;SDS011;28754;47.700;7.924;2023-09-18T16:03:57;1.00;;;0.88;;
42614;SDS011;28754;47.700;7.924;2023-09-18T16:06:44;2.30;;;1.05;;
42614;SDS011;28754;47.700;7.924;2023-09-18T16:09:32;2.60;;;0.80;;
42614;SDS011;28754;47.700;7.924;2023-09-18T16:12:18;1.77;;;0.80;;
42614;SDS011;28754;47.700;7.924;2023-09-18T16:15:06;2.08;;;1.00;;
42614;SDS011;28754;47.700;7.924;2023-09-18T16:17:54;1.70;;;0.82;;
42614;SDS011;28754;47.700;7.924;2023-09-18T16:20:41;1.98;;;0.88;;
42614;SDS011;28754;47.700;7.924;2023-09-18T16:23:28;1.65;;;0.70;;
42614;SDS011;28754;47.700;7.924;2023-09-18T16:26:14;1.02;;;0.57;;
42614;SDS011;28754;47.700;7.924;2023-09-18T16:29:01;1.80;;;0.68;;
42614;SDS011;28754;47.700;7.924;2023-09-18T16:31:50;1.10;;;0.60;;
42614;SDS011;28754;47.700;7.924;2023-09-18T16:34:38;1.45;;;0.85;;
42614;SDS011;28754;47.700;7.924;2023-09-18T16:37:24;1.70;;;0.63;;
42614;SDS011;28754;47.700;7.924;2023-09-18T16:40:12;1.60;;;1.00;;
42614;SDS011;28754;47.700;7.924;2023-09-18T16:42:59;2.33;;;0.93;;
42614;SDS011;28754;47.700;7.924;2023-09-18T16:45:46;2.35;;;0.90;;
42614;SDS011;28754;47.700;7.924;2023-09-18T16:48:34;2.10;;;0.82;;
42614;SDS011;28754;47.700;7.924;2023-09-18T16:51:20;2.20;;;0.75;;
42614;SDS011;28754;47.700;7.924;2023-09-18T16:54:07;2.42;;;0.82;;
42614;SDS011;28754;47.700;7.924;2023-09-18T16:56:54;3.08;;;0.70;;
42614;SDS011;28754;47.700;7.924;2023-09-18T16:59:41;2.40;;;0.60;;